sensor_id;sensor_type;location;lat;lon;timestamp;P1;durP1;ratioP1;P2;durP2;ratioP2
64842;SDS011;51310;52.198;5.422;2022-12-07T00:01:34;10.55;;;4.13;;
64842;SDS011;51310;52.198;5.422;2022-12-07T00:04:04;10.07;;;4.10;;
64842;SDS011;51310;52.198;5.422;2022-12-07T00:06:32;7.65;;;3.50;;
64842;SDS011;51310;52.198;5.422;2022-12-07T00:09:08;9.05;;;4.00;;
64842;SDS011;51310;52.198;5.422;2022-12-07T00:11:38;7.13;;;3.35;;
64842;SDS011;51310;52.198;5.422;2022-12-07T00:14:06;7.88;;;3.72;;
64842;SDS011;51310;52.198;5.422;2022-12-07T00:16:36;10.80;;;3.75;;
64842;SDS011;51310;52.198;5.422;2022-12-07T00:19:02;8.13;;;4.10;;
64842;SDS011;51310;52.198;5.422;2022-12-07T00:21:31;11.93;;;3.90;;
64842;SDS011;51310;52.198;5.422;2022-12-07T00:24:00;12.05;;;4.40;;
64842;SDS011;51310;52.198;5.422;2022-12-07T00:26:32;7.13;;;3.47;;
64842;SDS011;51310;52.198;5.422;2022-12-07T00:29:03;9.55;;;3.40;;
64842;SDS011;51310;52.198;5.422;2022-12-07T00:31:44;10.60;;;4.00;;
64842;SDS011;51310;52.198;5.422;2022-12-07T00:34:15;7.95;;;3.95;;
64842;SDS011;51310;52.198;5.422;2022-12-07T00:36:45;10.60;;;4.13;;
64842;SDS011;51310;52.198;5.422;2022-12-07T00:39:11;8.70;;;3.60;;
64842;SDS011;51310;52.198;5.422;2022-12-07T00:41:37;12.15;;;4.47;;
64842;SDS011;51310;52.198;5.422;2022-12-07T00:44:03;8.38;;;3.80;;
64842;SDS011;51310;52.198;5.422;2022-12-07T00:46:29;12.77;;;4.00;;
64842;SDS011;51310;52.198;5.422;2022-12-07T00:48:55;10.80;;;3.70;;
64842;SDS011;51310;52.198;5.422;2022-12-07T00:51:22;11.15;;;3.22;;
64842;SDS011;51310;52.198;5.422;2022-12-07T00:53:50;13.02;;;3.55;;
64842;SDS011;51310;52.198;5.422;2022-12-07T00:56:18;15.65;;;4.03;;
64842;SDS011;51310;52.198;5.422;2022-12-07T00:58:52;10.18;;;3.63;;
64842;SDS011;51310;52.198;5.422;2022-12-07T01:01:24;11.20;;;3.75;;
64842;SDS011;51310;52.198;5.422;2022-12-07T01:03:55;9.15;;;3.15;;
64842;SDS011;51310;52.198;5.422;2022-12-07T01:06:22;9.37;;;2.70;;
64842;SDS011;51310;52.198;5.422;2022-12-07T01:08:50;10.43;;;3.17;;
64842;SDS011;51310;52.198;5.422;2022-12-07T01:11:18;8.07;;;2.97;;
64842;SDS011;51310;52.198;5.422;2022-12-07T01:13:53;11.75;;;3.13;;
64842;SDS011;51310;52.198;5.422;2022-12-07T01:16:22;12.93;;;3.17;;
64842;SDS011;51310;52.198;5.422;2022-12-07T01:18:52;10.45;;;2.90;;
64842;SDS011;51310;52.198;5.422;2022-12-07T01:21:21;7.20;;;2.30;;
64842;SDS011;51310;52.198;5.422;2022-12-07T01:23:56;5.50;;;2.10;;
64842;SDS011;51310;52.198;5.422;2022-12-07T01:26:23;12.52;;;2.53;;
64842;SDS011;51310;52.198;5.422;2022-12-07T01:28:50;5.75;;;2.33;;
64842;SDS011;51310;52.198;5.422;2022-12-07T01:31:20;10.23;;;2.00;;
64842;SDS011;51310;52.198;5.422;2022-12-07T01:33:50;6.97;;;2.22;;
64842;SDS011;51310;52.198;5.422;2022-12-07T01:38:57;9.57;;;2.60;;
64842;SDS011;51310;52.198;5.422;2022-12-07T01:41:31;6.30;;;1.52;;
64842;SDS011;51310;52.198;5.422;2022-12-07T01:47:02;14.82;;;2.20;;
64842;SDS011;51310;52.198;5.422;2022-12-07T01:49:36;6.80;;;1.77;;
64842;SDS011;51310;52.198;5.422;2022-12-07T01:52:28;6.25;;;2.40;;
64842;SDS011;51310;52.198;5.422;2022-12-07T01:55:03;9.73;;;1.90;;
64842;SDS011;51310;52.198;5.422;2022-12-07T01:57:36;8.20;;;1.73;;
64842;SDS011;51310;52.198;5.422;2022-12-07T02:00:07;9.10;;;1.60;;
64842;SDS011;51310;52.198;5.422;2022-12-07T02:02:43;9.15;;;1.80;;
64842;SDS011;51310;52.198;5.422;2022-12-07T02:05:28;12.73;;;1.98;;
64842;SDS011;51310;52.198;5.422;2022-12-07T02:07:55;6.30;;;1.40;;
64842;SDS011;51310;52.198;5.422;2022-12-07T02:10:25;9.20;;;1.50;;
64842;SDS011;51310;52.198;5.422;2022-12-07T02:13:04;9.77;;;2.33;;
64842;SDS011;51310;52.198;5.422;2022-12-07T02:19:01;8.90;;;1.88;;
64842;SDS011;51310;52.198;5.422;2022-12-07T02:22:31;7.40;;;1.75;;
64842;SDS011;51310;52.198;5.422;2022-12-07T02:26:13;4.68;;;1.33;;
64842;SDS011;51310;52.198;5.422;2022-12-07T02:29:33;5.00;;;1.00;;
64842;SDS011;51310;52.198;5.422;2022-12-07T02:32:24;9.02;;;1.50;;
64842;SDS011;51310;52.198;5.422;2022-12-07T02:35:30;14.77;;;1.55;;
64842;SDS011;51310;52.198;5.422;2022-12-07T02:38:13;7.53;;;1.90;;
64842;SDS011;51310;52.198;5.422;2022-12-07T02:41:42;9.65;;;1.80;;
64842;SDS011;51310;52.198;5.422;2022-12-07T02:44:08;6.55;;;1.50;;
64842;SDS011;51310;52.198;5.422;2022-12-07T02:46:43;5.25;;;1.40;;
64842;SDS011;51310;52.198;5.422;2022-12-07T02:49:39;9.18;;;1.20;;
64842;SDS011;51310;52.198;5.422;2022-12-07T02:52:06;5.72;;;1.05;;
64842;SDS011;51310;52.198;5.422;2022-12-07T02:54:31;12.53;;;2.00;;
64842;SDS011;51310;52.198;5.422;2022-12-07T03:02:44;3.20;;;1.33;;
64842;SDS011;51310;52.198;5.422;2022-12-07T03:12:03;5.53;;;1.48;;
64842;SDS011;51310;52.198;5.422;2022-12-07T03:14:41;5.85;;;1.73;;
64842;SDS011;51310;52.198;5.422;2022-12-07T03:17:26;6.47;;;1.77;;
64842;SDS011;51310;52.198;5.422;2022-12-07T03:20:02;6.45;;;1.40;;
64842;SDS011;51310;52.198;5.422;2022-12-07T03:22:32;8.75;;;1.73;;
64842;SDS011;51310;52.198;5.422;2022-12-07T03:25:04;6.13;;;1.75;;
64842;SDS011;51310;52.198;5.422;2022-12-07T03:30:22;7.03;;;1.67;;
64842;SDS011;51310;52.198;5.422;2022-12-07T03:33:14;8.63;;;1.70;;
64842;SDS011;51310;52.198;5.422;2022-12-07T03:35:58;7.63;;;1.70;;
64842;SDS011;51310;52.198;5.422;2022-12-07T03:38:38;6.55;;;1.52;;
64842;SDS011;51310;52.198;5.422;2022-12-07T03:41:33;9.27;;;1.30;;
64842;SDS011;51310;52.198;5.422;2022-12-07T03:44:03;6.95;;;1.88;;
64842;SDS011;51310;52.198;5.422;2022-12-07T03:55:13;5.90;;;1.80;;
64842;SDS011;51310;52.198;5.422;2022-12-07T03:57:53;6.93;;;1.73;;
64842;SDS011;51310;52.198;5.422;2022-12-07T04:00:29;7.82;;;1.73;;
64842;SDS011;51310;52.198;5.422;2022-12-07T04:02:56;7.95;;;1.50;;
64842;SDS011;51310;52.198;5.422;2022-12-07T04:05:22;8.25;;;2.28;;
64842;SDS011;51310;52.198;5.422;2022-12-07T04:07:48;7.20;;;1.45;;
64842;SDS011;51310;52.198;5.422;2022-12-07T04:10:14;6.90;;;1.30;;
64842;SDS011;51310;52.198;5.422;2022-12-07T04:12:40;10.43;;;1.67;;
64842;SDS011;51310;52.198;5.422;2022-12-07T04:15:06;9.15;;;2.20;;
64842;SDS011;51310;52.198;5.422;2022-12-07T04:17:33;19.45;;;6.97;;
64842;SDS011;51310;52.198;5.422;2022-12-07T04:20:00;9.10;;;1.65;;
64842;SDS011;51310;52.198;5.422;2022-12-07T04:22:27;5.00;;;1.30;;
64842;SDS011;51310;52.198;5.422;2022-12-07T04:24:53;5.97;;;1.90;;
64842;SDS011;51310;52.198;5.422;2022-12-07T04:27:19;7.30;;;1.95;;
64842;SDS011;51310;52.198;5.422;2022-12-07T04:29:44;8.55;;;1.90;;
64842;SDS011;51310;52.198;5.422;2022-12-07T04:32:10;6.60;;;2.25;;
64842;SDS011;51310;52.198;5.422;2022-12-07T04:34:36;9.05;;;2.08;;
64842;SDS011;51310;52.198;5.422;2022-12-07T04:37:02;6.60;;;1.60;;
64842;SDS011;51310;52.198;5.422;2022-12-07T04:39:28;8.30;;;1.37;;
64842;SDS011;51310;52.198;5.422;2022-12-07T04:41:58;5.60;;;1.90;;
64842;SDS011;51310;52.198;5.422;2022-12-07T04:44:26;11.13;;;1.95;;
64842;SDS011;51310;52.198;5.422;2022-12-07T04:46:54;5.20;;;2.10;;
64842;SDS011;51310;52.198;5.422;2022-12-07T04:49:22;5.93;;;1.77;;
64842;SDS011;51310;52.198;5.422;2022-12-07T04:51:49;8.40;;;1.75;;
64842;SDS011;51310;52.198;5.422;2022-12-07T04:54:16;6.97;;;1.33;;
64842;SDS011;51310;52.198;5.422;2022-12-07T04:56:42;4.93;;;1.23;;
64842;SDS011;51310;52.198;5.422;2022-12-07T04:59:09;6.85;;;1.55;;
64842;SDS011;51310;52.198;5.422;2022-12-07T05:01:37;7.30;;;1.70;;
64842;SDS011;51310;52.198;5.422;2022-12-07T05:04:03;8.45;;;1.90;;
64842;SDS011;51310;52.198;5.422;2022-12-07T05:06:30;11.23;;;1.50;;
64842;SDS011;51310;52.198;5.422;2022-12-07T05:08:56;6.20;;;1.80;;
64842;SDS011;51310;52.198;5.422;2022-12-07T05:11:22;5.05;;;1.33;;
64842;SDS011;51310;52.198;5.422;2022-12-07T05:14:04;8.60;;;2.10;;
64842;SDS011;51310;52.198;5.422;2022-12-07T05:16:46;8.10;;;1.57;;
64842;SDS011;51310;52.198;5.422;2022-12-07T05:19:15;7.50;;;1.88;;
64842;SDS011;51310;52.198;5.422;2022-12-07T05:21:42;8.45;;;1.40;;
64842;SDS011;51310;52.198;5.422;2022-12-07T05:24:09;12.80;;;1.75;;
64842;SDS011;51310;52.198;5.422;2022-12-07T05:26:38;8.15;;;1.50;;
64842;SDS011;51310;52.198;5.422;2022-12-07T05:29:04;3.35;;;1.15;;
64842;SDS011;51310;52.198;5.422;2022-12-07T05:31:31;10.03;;;1.40;;
64842;SDS011;51310;52.198;5.422;2022-12-07T05:34:01;5.57;;;1.10;;
64842;SDS011;51310;52.198;5.422;2022-12-07T05:36:27;4.03;;;1.48;;
64842;SDS011;51310;52.198;5.422;2022-12-07T05:38:53;9.27;;;1.30;;
64842;SDS011;51310;52.198;5.422;2022-12-07T05:41:19;5.43;;;0.93;;
64842;SDS011;51310;52.198;5.422;2022-12-07T05:44:04;6.90;;;1.17;;
64842;SDS011;51310;52.198;5.422;2022-12-07T05:46:30;5.03;;;1.30;;
64842;SDS011;51310;52.198;5.422;2022-12-07T05:48:57;4.72;;;1.10;;
64842;SDS011;51310;52.198;5.422;2022-12-07T05:51:23;7.72;;;1.60;;
64842;SDS011;51310;52.198;5.422;2022-12-07T05:53:48;6.13;;;0.98;;
64842;SDS011;51310;52.198;5.422;2022-12-07T05:56:14;6.50;;;1.30;;
64842;SDS011;51310;52.198;5.422;2022-12-07T05:58:40;6.30;;;1.40;;
64842;SDS011;51310;52.198;5.422;2022-12-07T06:01:25;5.30;;;1.40;;
64842;SDS011;51310;52.198;5.422;2022-12-07T06:03:51;8.90;;;1.47;;
64842;SDS011;51310;52.198;5.422;2022-12-07T06:06:16;3.80;;;1.25;;
64842;SDS011;51310;52.198;5.422;2022-12-07T06:08:42;3.85;;;1.10;;
64842;SDS011;51310;52.198;5.422;2022-12-07T06:11:08;9.18;;;2.13;;
64842;SDS011;51310;52.198;5.422;2022-12-07T06:14:00;4.53;;;1.35;;
64842;SDS011;51310;52.198;5.422;2022-12-07T06:16:26;3.60;;;1.00;;
64842;SDS011;51310;52.198;5.422;2022-12-07T06:18:52;4.63;;;1.40;;
64842;SDS011;51310;52.198;5.422;2022-12-07T06:21:18;7.60;;;1.25;;
64842;SDS011;51310;52.198;5.422;2022-12-07T06:23:44;6.17;;;1.07;;
64842;SDS011;51310;52.198;5.422;2022-12-07T06:26:10;5.43;;;1.70;;
64842;SDS011;51310;52.198;5.422;2022-12-07T06:28:36;5.88;;;1.38;;
64842;SDS011;51310;52.198;5.422;2022-12-07T06:31:02;8.20;;;1.38;;
64842;SDS011;51310;52.198;5.422;2022-12-07T06:33:28;6.22;;;1.70;;
64842;SDS011;51310;52.198;5.422;2022-12-07T06:35:54;3.13;;;1.23;;
64842;SDS011;51310;52.198;5.422;2022-12-07T06:38:20;6.78;;;1.48;;
64842;SDS011;51310;52.198;5.422;2022-12-07T06:40:46;8.88;;;1.45;;
64842;SDS011;51310;52.198;5.422;2022-12-07T06:43:13;7.75;;;1.42;;
64842;SDS011;51310;52.198;5.422;2022-12-07T06:45:40;8.35;;;1.70;;
64842;SDS011;51310;52.198;5.422;2022-12-07T06:48:06;5.50;;;1.13;;
64842;SDS011;51310;52.198;5.422;2022-12-07T06:50:32;5.00;;;1.30;;
64842;SDS011;51310;52.198;5.422;2022-12-07T06:52:58;5.53;;;1.88;;
64842;SDS011;51310;52.198;5.422;2022-12-07T06:55:24;7.25;;;1.73;;
64842;SDS011;51310;52.198;5.422;2022-12-07T06:57:50;5.85;;;1.50;;
64842;SDS011;51310;52.198;5.422;2022-12-07T07:00:15;5.93;;;1.60;;
64842;SDS011;51310;52.198;5.422;2022-12-07T07:02:42;9.90;;;2.28;;
64842;SDS011;51310;52.198;5.422;2022-12-07T07:05:08;8.43;;;2.28;;
64842;SDS011;51310;52.198;5.422;2022-12-07T07:07:34;9.23;;;1.73;;
64842;SDS011;51310;52.198;5.422;2022-12-07T07:10:00;12.27;;;2.37;;
64842;SDS011;51310;52.198;5.422;2022-12-07T07:12:25;5.80;;;1.77;;
64842;SDS011;51310;52.198;5.422;2022-12-07T07:14:51;5.82;;;1.58;;
64842;SDS011;51310;52.198;5.422;2022-12-07T07:17:17;7.32;;;1.45;;
64842;SDS011;51310;52.198;5.422;2022-12-07T07:19:43;11.68;;;2.28;;
64842;SDS011;51310;52.198;5.422;2022-12-07T07:22:09;8.25;;;2.05;;
64842;SDS011;51310;52.198;5.422;2022-12-07T07:24:35;7.33;;;1.57;;
64842;SDS011;51310;52.198;5.422;2022-12-07T07:27:01;5.15;;;2.33;;
64842;SDS011;51310;52.198;5.422;2022-12-07T07:29:27;8.93;;;1.88;;
64842;SDS011;51310;52.198;5.422;2022-12-07T07:31:52;7.38;;;2.10;;
64842;SDS011;51310;52.198;5.422;2022-12-07T07:34:18;8.90;;;2.45;;
64842;SDS011;51310;52.198;5.422;2022-12-07T07:36:44;9.05;;;2.22;;
64842;SDS011;51310;52.198;5.422;2022-12-07T07:39:10;4.90;;;2.00;;
64842;SDS011;51310;52.198;5.422;2022-12-07T07:41:37;9.20;;;2.13;;
64842;SDS011;51310;52.198;5.422;2022-12-07T07:44:04;8.77;;;2.27;;
64842;SDS011;51310;52.198;5.422;2022-12-07T07:46:29;8.43;;;2.67;;
64842;SDS011;51310;52.198;5.422;2022-12-07T07:48:58;8.68;;;2.17;;
64842;SDS011;51310;52.198;5.422;2022-12-07T07:51:23;9.20;;;2.00;;
64842;SDS011;51310;52.198;5.422;2022-12-07T07:53:49;10.02;;;2.30;;
64842;SDS011;51310;52.198;5.422;2022-12-07T07:56:15;7.18;;;2.17;;
64842;SDS011;51310;52.198;5.422;2022-12-07T07:58:41;8.52;;;2.47;;
64842;SDS011;51310;52.198;5.422;2022-12-07T08:01:07;10.63;;;2.95;;
64842;SDS011;51310;52.198;5.422;2022-12-07T08:03:33;8.37;;;2.33;;
64842;SDS011;51310;52.198;5.422;2022-12-07T08:05:59;12.30;;;2.45;;
64842;SDS011;51310;52.198;5.422;2022-12-07T08:08:31;13.77;;;2.53;;
64842;SDS011;51310;52.198;5.422;2022-12-07T08:10:57;10.20;;;2.67;;
64842;SDS011;51310;52.198;5.422;2022-12-07T08:13:26;8.83;;;2.90;;
64842;SDS011;51310;52.198;5.422;2022-12-07T08:15:52;6.15;;;2.88;;
64842;SDS011;51310;52.198;5.422;2022-12-07T08:18:18;13.80;;;2.85;;
64842;SDS011;51310;52.198;5.422;2022-12-07T08:20:44;7.80;;;2.83;;
64842;SDS011;51310;52.198;5.422;2022-12-07T08:23:10;10.80;;;2.63;;
64842;SDS011;51310;52.198;5.422;2022-12-07T08:25:36;13.05;;;2.90;;
64842;SDS011;51310;52.198;5.422;2022-12-07T08:28:03;10.25;;;2.60;;
64842;SDS011;51310;52.198;5.422;2022-12-07T08:30:29;8.68;;;2.95;;
64842;SDS011;51310;52.198;5.422;2022-12-07T08:32:56;9.55;;;2.88;;
64842;SDS011;51310;52.198;5.422;2022-12-07T08:35:22;10.60;;;2.42;;
64842;SDS011;51310;52.198;5.422;2022-12-07T08:37:49;8.98;;;2.80;;
64842;SDS011;51310;52.198;5.422;2022-12-07T08:40:15;8.35;;;2.72;;
64842;SDS011;51310;52.198;5.422;2022-12-07T08:42:43;9.47;;;2.50;;
64842;SDS011;51310;52.198;5.422;2022-12-07T08:45:14;9.18;;;2.40;;
64842;SDS011;51310;52.198;5.422;2022-12-07T08:47:44;6.13;;;1.92;;
64842;SDS011;51310;52.198;5.422;2022-12-07T08:50:31;11.57;;;2.30;;
64842;SDS011;51310;52.198;5.422;2022-12-07T08:52:59;5.63;;;2.15;;
64842;SDS011;51310;52.198;5.422;2022-12-07T08:55:26;10.27;;;2.67;;
64842;SDS011;51310;52.198;5.422;2022-12-07T08:57:54;10.95;;;2.10;;
64842;SDS011;51310;52.198;5.422;2022-12-07T09:00:22;5.18;;;2.10;;
64842;SDS011;51310;52.198;5.422;2022-12-07T09:02:48;7.72;;;2.33;;
64842;SDS011;51310;52.198;5.422;2022-12-07T09:05:14;9.57;;;2.30;;
64842;SDS011;51310;52.198;5.422;2022-12-07T09:07:40;6.30;;;2.03;;
64842;SDS011;51310;52.198;5.422;2022-12-07T09:10:13;8.00;;;2.05;;
64842;SDS011;51310;52.198;5.422;2022-12-07T09:12:39;8.05;;;1.60;;
64842;SDS011;51310;52.198;5.422;2022-12-07T09:15:05;8.37;;;1.80;;
64842;SDS011;51310;52.198;5.422;2022-12-07T09:17:33;8.15;;;2.53;;
64842;SDS011;51310;52.198;5.422;2022-12-07T09:20:00;7.50;;;1.73;;
64842;SDS011;51310;52.198;5.422;2022-12-07T09:22:29;9.07;;;2.67;;
64842;SDS011;51310;52.198;5.422;2022-12-07T09:24:57;7.90;;;1.60;;
64842;SDS011;51310;52.198;5.422;2022-12-07T09:27:24;4.57;;;1.65;;
64842;SDS011;51310;52.198;5.422;2022-12-07T09:29:50;5.15;;;1.40;;
64842;SDS011;51310;52.198;5.422;2022-12-07T09:32:16;6.47;;;1.37;;
64842;SDS011;51310;52.198;5.422;2022-12-07T09:34:42;6.50;;;1.70;;
64842;SDS011;51310;52.198;5.422;2022-12-07T09:37:08;6.55;;;1.95;;
64842;SDS011;51310;52.198;5.422;2022-12-07T09:39:34;9.18;;;1.85;;
64842;SDS011;51310;52.198;5.422;2022-12-07T09:42:03;5.40;;;1.43;;
64842;SDS011;51310;52.198;5.422;2022-12-07T09:44:32;7.73;;;1.30;;
64842;SDS011;51310;52.198;5.422;2022-12-07T09:47:00;3.80;;;1.40;;
64842;SDS011;51310;52.198;5.422;2022-12-07T09:49:28;4.32;;;1.65;;
64842;SDS011;51310;52.198;5.422;2022-12-07T09:52:30;4.33;;;1.23;;
64842;SDS011;51310;52.198;5.422;2022-12-07T09:54:54;6.65;;;1.40;;
64842;SDS011;51310;52.198;5.422;2022-12-07T09:57:21;7.40;;;1.85;;
64842;SDS011;51310;52.198;5.422;2022-12-07T09:59:56;5.70;;;1.30;;
64842;SDS011;51310;52.198;5.422;2022-12-07T10:02:39;6.50;;;1.77;;
64842;SDS011;51310;52.198;5.422;2022-12-07T10:05:12;6.82;;;1.60;;
64842;SDS011;51310;52.198;5.422;2022-12-07T10:07:45;6.53;;;1.63;;
64842;SDS011;51310;52.198;5.422;2022-12-07T10:10:15;5.65;;;1.80;;
64842;SDS011;51310;52.198;5.422;2022-12-07T10:13:02;6.40;;;1.50;;
64842;SDS011;51310;52.198;5.422;2022-12-07T10:15:43;7.45;;;1.80;;
64842;SDS011;51310;52.198;5.422;2022-12-07T10:21:06;8.23;;;1.70;;
64842;SDS011;51310;52.198;5.422;2022-12-07T10:24:01;6.30;;;1.55;;
64842;SDS011;51310;52.198;5.422;2022-12-07T10:26:41;8.15;;;1.70;;
64842;SDS011;51310;52.198;5.422;2022-12-07T10:31:42;2.90;;;1.27;;
64842;SDS011;51310;52.198;5.422;2022-12-07T10:34:24;7.43;;;2.10;;
64842;SDS011;51310;52.198;5.422;2022-12-07T10:37:07;6.50;;;1.55;;
64842;SDS011;51310;52.198;5.422;2022-12-07T10:45:09;4.50;;;1.60;;
64842;SDS011;51310;52.198;5.422;2022-12-07T10:47:47;8.73;;;1.40;;
64842;SDS011;51310;52.198;5.422;2022-12-07T11:00:24;6.73;;;1.83;;
64842;SDS011;51310;52.198;5.422;2022-12-07T11:03:41;6.17;;;1.33;;
64842;SDS011;51310;52.198;5.422;2022-12-07T11:06:33;7.78;;;1.85;;
64842;SDS011;51310;52.198;5.422;2022-12-07T11:12:01;4.45;;;1.40;;
64842;SDS011;51310;52.198;5.422;2022-12-07T11:17:48;8.60;;;1.77;;
64842;SDS011;51310;52.198;5.422;2022-12-07T11:20:43;5.97;;;1.15;;
64842;SDS011;51310;52.198;5.422;2022-12-07T11:23:56;4.82;;;1.50;;
64842;SDS011;51310;52.198;5.422;2022-12-07T11:26:48;9.35;;;1.90;;
64842;SDS011;51310;52.198;5.422;2022-12-07T11:30:02;7.43;;;1.60;;
64842;SDS011;51310;52.198;5.422;2022-12-07T11:33:20;7.47;;;1.75;;
64842;SDS011;51310;52.198;5.422;2022-12-07T11:41:29;6.07;;;2.13;;
64842;SDS011;51310;52.198;5.422;2022-12-07T11:44:08;8.00;;;2.13;;
64842;SDS011;51310;52.198;5.422;2022-12-07T11:50:25;6.78;;;1.70;;
64842;SDS011;51310;52.198;5.422;2022-12-07T11:58:44;7.85;;;1.50;;
64842;SDS011;51310;52.198;5.422;2022-12-07T12:04:02;7.90;;;1.77;;
64842;SDS011;51310;52.198;5.422;2022-12-07T12:07:21;7.07;;;2.33;;
64842;SDS011;51310;52.198;5.422;2022-12-07T12:10:07;8.20;;;1.20;;
64842;SDS011;51310;52.198;5.422;2022-12-07T12:13:07;13.00;;;1.90;;
64842;SDS011;51310;52.198;5.422;2022-12-07T12:19:36;5.82;;;1.30;;
64842;SDS011;51310;52.198;5.422;2022-12-07T12:22:22;7.40;;;1.80;;
64842;SDS011;51310;52.198;5.422;2022-12-07T12:25:05;4.68;;;1.85;;
64842;SDS011;51310;52.198;5.422;2022-12-07T12:28:10;6.45;;;1.48;;
64842;SDS011;51310;52.198;5.422;2022-12-07T12:31:13;10.90;;;1.52;;
64842;SDS011;51310;52.198;5.422;2022-12-07T12:33:46;6.03;;;1.67;;
64842;SDS011;51310;52.198;5.422;2022-12-07T12:49:40;4.78;;;1.20;;
64842;SDS011;51310;52.198;5.422;2022-12-07T12:57:34;6.97;;;1.50;;
64842;SDS011;51310;52.198;5.422;2022-12-07T13:00:21;1.90;;;0.80;;
64842;SDS011;51310;52.198;5.422;2022-12-07T13:05:22;5.70;;;0.93;;
64842;SDS011;51310;52.198;5.422;2022-12-07T13:20:57;4.82;;;0.90;;
64842;SDS011;51310;52.198;5.422;2022-12-07T13:26:18;1.93;;;0.57;;
64842;SDS011;51310;52.198;5.422;2022-12-07T13:34:36;2.45;;;0.90;;
64842;SDS011;51310;52.198;5.422;2022-12-07T13:42:43;3.72;;;0.70;;
64842;SDS011;51310;52.198;5.422;2022-12-07T13:45:23;2.40;;;0.70;;
64842;SDS011;51310;52.198;5.422;2022-12-07T13:48:18;2.83;;;0.52;;
64842;SDS011;51310;52.198;5.422;2022-12-07T13:53:52;3.58;;;0.90;;
64842;SDS011;51310;52.198;5.422;2022-12-07T13:56:34;4.37;;;1.00;;
64842;SDS011;51310;52.198;5.422;2022-12-07T13:59:01;3.53;;;1.10;;
64842;SDS011;51310;52.198;5.422;2022-12-07T14:01:41;4.40;;;0.88;;
64842;SDS011;51310;52.198;5.422;2022-12-07T14:04:16;4.00;;;1.23;;
64842;SDS011;51310;52.198;5.422;2022-12-07T14:07:01;4.30;;;0.90;;
64842;SDS011;51310;52.198;5.422;2022-12-07T14:10:03;4.10;;;0.90;;
64842;SDS011;51310;52.198;5.422;2022-12-07T14:12:32;4.80;;;0.82;;
64842;SDS011;51310;52.198;5.422;2022-12-07T14:15:02;4.47;;;1.07;;
64842;SDS011;51310;52.198;5.422;2022-12-07T14:17:29;6.78;;;1.25;;
64842;SDS011;51310;52.198;5.422;2022-12-07T14:19:55;3.42;;;1.20;;
64842;SDS011;51310;52.198;5.422;2022-12-07T14:22:30;4.20;;;1.08;;
64842;SDS011;51310;52.198;5.422;2022-12-07T14:25:01;4.75;;;1.40;;
64842;SDS011;51310;52.198;5.422;2022-12-07T14:27:48;3.38;;;1.10;;
64842;SDS011;51310;52.198;5.422;2022-12-07T14:30:21;6.75;;;1.65;;
64842;SDS011;51310;52.198;5.422;2022-12-07T14:32:53;3.63;;;1.13;;
64842;SDS011;51310;52.198;5.422;2022-12-07T14:35:29;3.50;;;0.80;;
64842;SDS011;51310;52.198;5.422;2022-12-07T14:37:57;6.20;;;1.20;;
64842;SDS011;51310;52.198;5.422;2022-12-07T14:40:24;3.28;;;1.45;;
64842;SDS011;51310;52.198;5.422;2022-12-07T14:43:00;8.98;;;1.88;;
64842;SDS011;51310;52.198;5.422;2022-12-07T14:45:30;4.67;;;1.90;;
64842;SDS011;51310;52.198;5.422;2022-12-07T14:47:56;3.40;;;1.20;;
64842;SDS011;51310;52.198;5.422;2022-12-07T14:50:22;5.93;;;1.70;;
64842;SDS011;51310;52.198;5.422;2022-12-07T14:52:56;5.35;;;2.13;;
64842;SDS011;51310;52.198;5.422;2022-12-07T14:55:30;5.97;;;1.50;;
64842;SDS011;51310;52.198;5.422;2022-12-07T14:57:56;7.22;;;2.03;;
64842;SDS011;51310;52.198;5.422;2022-12-07T15:00:25;6.38;;;1.65;;
64842;SDS011;51310;52.198;5.422;2022-12-07T15:02:52;6.80;;;1.65;;
64842;SDS011;51310;52.198;5.422;2022-12-07T15:05:19;7.72;;;2.00;;
64842;SDS011;51310;52.198;5.422;2022-12-07T15:07:45;7.13;;;1.60;;
64842;SDS011;51310;52.198;5.422;2022-12-07T15:10:14;6.32;;;1.30;;
64842;SDS011;51310;52.198;5.422;2022-12-07T15:12:42;3.70;;;1.17;;
64842;SDS011;51310;52.198;5.422;2022-12-07T15:15:09;5.47;;;1.80;;
64842;SDS011;51310;52.198;5.422;2022-12-07T15:17:35;3.40;;;0.70;;
64842;SDS011;51310;52.198;5.422;2022-12-07T15:20:01;2.60;;;0.70;;
64842;SDS011;51310;52.198;5.422;2022-12-07T15:22:29;2.73;;;0.90;;
64842;SDS011;51310;52.198;5.422;2022-12-07T15:24:56;2.90;;;1.25;;
64842;SDS011;51310;52.198;5.422;2022-12-07T15:27:22;2.65;;;0.90;;
64842;SDS011;51310;52.198;5.422;2022-12-07T15:29:48;3.67;;;1.20;;
64842;SDS011;51310;52.198;5.422;2022-12-07T15:32:14;5.15;;;1.30;;
64842;SDS011;51310;52.198;5.422;2022-12-07T15:34:40;6.60;;;1.60;;
64842;SDS011;51310;52.198;5.422;2022-12-07T15:37:07;7.13;;;1.30;;
64842;SDS011;51310;52.198;5.422;2022-12-07T15:39:33;6.38;;;1.67;;
64842;SDS011;51310;52.198;5.422;2022-12-07T15:42:01;6.72;;;1.85;;
64842;SDS011;51310;52.198;5.422;2022-12-07T15:44:27;5.82;;;2.38;;
64842;SDS011;51310;52.198;5.422;2022-12-07T15:47:12;5.83;;;2.27;;
64842;SDS011;51310;52.198;5.422;2022-12-07T15:49:38;6.88;;;2.10;;
64842;SDS011;51310;52.198;5.422;2022-12-07T15:52:03;5.47;;;2.08;;
64842;SDS011;51310;52.198;5.422;2022-12-07T15:54:29;5.25;;;2.13;;
64842;SDS011;51310;52.198;5.422;2022-12-07T15:56:57;5.20;;;2.33;;
64842;SDS011;51310;52.198;5.422;2022-12-07T15:59:23;4.25;;;1.90;;
64842;SDS011;51310;52.198;5.422;2022-12-07T16:01:50;5.00;;;1.70;;
64842;SDS011;51310;52.198;5.422;2022-12-07T16:04:16;7.25;;;2.58;;
64842;SDS011;51310;52.198;5.422;2022-12-07T16:06:42;7.35;;;2.10;;
64842;SDS011;51310;52.198;5.422;2022-12-07T16:09:09;3.13;;;1.67;;
64842;SDS011;51310;52.198;5.422;2022-12-07T16:11:35;5.55;;;2.22;;
64842;SDS011;51310;52.198;5.422;2022-12-07T16:14:01;5.60;;;1.85;;
64842;SDS011;51310;52.198;5.422;2022-12-07T16:16:27;4.65;;;2.20;;
64842;SDS011;51310;52.198;5.422;2022-12-07T16:18:54;4.13;;;2.47;;
64842;SDS011;51310;52.198;5.422;2022-12-07T16:21:20;9.02;;;2.90;;
64842;SDS011;51310;52.198;5.422;2022-12-07T16:23:46;7.22;;;2.67;;
64842;SDS011;51310;52.198;5.422;2022-12-07T16:26:13;8.18;;;2.45;;
64842;SDS011;51310;52.198;5.422;2022-12-07T16:28:43;10.10;;;2.65;;
64842;SDS011;51310;52.198;5.422;2022-12-07T16:31:11;7.93;;;3.08;;
64842;SDS011;51310;52.198;5.422;2022-12-07T16:33:42;7.25;;;2.15;;
64842;SDS011;51310;52.198;5.422;2022-12-07T16:36:10;7.68;;;2.70;;
64842;SDS011;51310;52.198;5.422;2022-12-07T16:38:40;8.80;;;2.35;;
64842;SDS011;51310;52.198;5.422;2022-12-07T16:41:08;9.63;;;2.97;;
64842;SDS011;51310;52.198;5.422;2022-12-07T16:43:35;5.75;;;2.47;;
64842;SDS011;51310;52.198;5.422;2022-12-07T16:46:02;6.75;;;2.60;;
64842;SDS011;51310;52.198;5.422;2022-12-07T16:48:28;6.35;;;2.80;;
64842;SDS011;51310;52.198;5.422;2022-12-07T16:50:55;6.05;;;2.20;;
64842;SDS011;51310;52.198;5.422;2022-12-07T16:53:21;6.50;;;2.67;;
64842;SDS011;51310;52.198;5.422;2022-12-07T16:55:49;5.70;;;2.22;;
64842;SDS011;51310;52.198;5.422;2022-12-07T16:58:16;8.77;;;2.30;;
64842;SDS011;51310;52.198;5.422;2022-12-07T17:00:43;5.63;;;2.60;;
64842;SDS011;51310;52.198;5.422;2022-12-07T17:03:10;5.90;;;2.53;;
64842;SDS011;51310;52.198;5.422;2022-12-07T17:05:37;6.18;;;2.30;;
64842;SDS011;51310;52.198;5.422;2022-12-07T17:08:06;6.88;;;2.90;;
64842;SDS011;51310;52.198;5.422;2022-12-07T17:10:34;8.23;;;2.40;;
64842;SDS011;51310;52.198;5.422;2022-12-07T17:13:03;8.02;;;2.40;;
64842;SDS011;51310;52.198;5.422;2022-12-07T17:16:02;8.02;;;2.83;;
64842;SDS011;51310;52.198;5.422;2022-12-07T17:18:31;8.60;;;3.15;;
64842;SDS011;51310;52.198;5.422;2022-12-07T17:21:04;11.15;;;3.45;;
64842;SDS011;51310;52.198;5.422;2022-12-07T17:23:34;7.25;;;4.13;;
64842;SDS011;51310;52.198;5.422;2022-12-07T17:26:12;11.63;;;2.95;;
64842;SDS011;51310;52.198;5.422;2022-12-07T17:28:43;8.03;;;3.37;;